Time;durP1;ratioP1;P1;durP2;ratioP2;P2;SDS_P1;SDS_P2;PMS_P1;PMS_P2;Temp;Humidity;BMP_temperature;BMP_pressure;BME280_temperature;BME280_humidity;BME280_pressure;Samples;Min_cycle;Max_cycle;Signal;HPM_P1;HPM_P2
2023/01/01 00:01:39;;;;;;;31.03;26.07;;;;;;;1.65;100.00;99927.31;6244818;23;20204;-78
2023/01/01 00:04:09;;;;;;;32.00;26.20;;;;;;;1.62;100.00;99922.38;6217477;23;20208;-78
2023/01/01 00:06:36;;;;;;;30.90;26.47;;;;;;;1.57;100.00;99922.00;6218029;23;20254;-78
2023/01/01 00:11:48;;;;;;;48.40;37.00;;;;;;;1.53;100.00;99919.81;6222192;23;20204;-78
2023/01/01 00:14:14;;;;;;;58.93;44.73;;;;;;;1.54;100.00;99927.56;6243736;23;20205;-79
2023/01/01 00:16:41;;;;;;;40.73;33.10;;;;;;;1.50;100.00;99928.88;6245277;23;20209;-78
2023/01/01 00:19:08;;;;;;;39.60;32.30;;;;;;;1.52;100.00;99926.91;6245033;23;20642;-79
2023/01/01 00:21:34;;;;;;;42.73;34.67;;;;;;;1.51;100.00;99929.69;6244712;23;20284;-79
2023/01/01 00:24:01;;;;;;;41.83;33.07;;;;;;;1.45;100.00;99933.78;6244156;23;20254;-77
2023/01/01 00:26:28;;;;;;;36.17;30.07;;;;;;;1.40;100.00;99936.03;6245278;23;20192;-79
2023/01/01 00:29:00;;;;;;;38.73;32.63;;;;;;;1.39;100.00;99947.59;6244664;23;20292;-78
2023/01/01 00:31:27;;;;;;;38.87;31.33;;;;;;;1.38;100.00;99947.75;6244827;23;20266;-78
2023/01/01 00:33:55;;;;;;;38.13;32.03;;;;;;;1.30;100.00;99946.72;6244667;23;20286;-78
2023/01/01 00:36:23;;;;;;;41.50;32.93;;;;;;;1.26;100.00;99947.19;6243994;23;20205;-78
2023/01/01 00:38:50;;;;;;;43.90;35.07;;;;;;;1.26;100.00;99931.34;6218442;23;20251;-79
2023/01/01 00:41:17;;;;;;;41.07;33.73;;;;;;;1.22;100.00;99936.06;6193487;23;20661;-78
2023/01/01 00:43:44;;;;;;;50.67;38.43;;;;;;;1.22;100.00;99943.16;6244607;23;20205;-79
2023/01/01 00:46:11;;;;;;;41.93;33.53;;;;;;;1.17;100.00;99940.16;6243865;23;20211;-79
2023/01/01 00:48:38;;;;;;;41.33;33.50;;;;;;;1.16;100.00;99938.50;6218594;23;20184;-79
2023/01/01 00:51:05;;;;;;;45.33;34.80;;;;;;;1.13;100.00;99936.16;6244454;23;20528;-80
2023/01/01 00:53:32;;;;;;;41.83;33.73;;;;;;;1.15;100.00;99928.94;6244323;23;20601;-79
2023/01/01 00:55:59;;;;;;;40.87;33.60;;;;;;;1.16;100.00;99914.75;6244736;23;20223;-79
2023/01/01 00:58:25;;;;;;;44.87;35.30;;;;;;;1.08;100.00;99909.38;6243748;23;20251;-78
2023/01/01 01:00:53;;;;;;;49.33;39.00;;;;;;;1.17;100.00;99917.22;6218777;23;20239;-79
2023/01/01 01:03:27;;;;;;;51.90;39.93;;;;;;;1.12;100.00;99926.59;6244529;23;20688;-78
2023/01/01 01:06:02;;;;;;;45.27;35.90;;;;;;;1.05;100.00;99936.94;6244270;23;20201;-78
2023/01/01 01:08:32;;;;;;;46.37;35.60;;;;;;;1.00;100.00;99941.81;6244447;23;20208;-78
2023/01/01 01:11:09;;;;;;;42.80;32.57;;;;;;;0.94;100.00;99939.78;6244350;23;20211;-78
2023/01/01 01:13:37;;;;;;;40.07;32.37;;;;;;;0.94;100.00;99952.97;6244337;23;20691;-79
2023/01/01 01:16:15;;;;;;;43.60;33.03;;;;;;;0.94;100.00;99947.69;6243831;23;20226;-78
2023/01/01 01:18:43;;;;;;;90.80;45.40;;;;;;;0.92;100.00;99933.00;6244590;23;20209;-79
2023/01/01 01:21:13;;;;;;;61.50;45.97;;;;;;;0.96;100.00;99931.72;6244414;23;20209;-78
2023/01/01 01:23:39;;;;;;;54.07;40.33;;;;;;;0.91;100.00;99923.44;6218014;23;20232;-79
2023/01/01 01:26:14;;;;;;;59.97;44.87;;;;;;;0.92;100.00;99914.53;6243526;23;20579;-79
2023/01/01 01:28:41;;;;;;;63.07;45.20;;;;;;;0.83;100.00;99903.91;6217802;23;20216;-79
2023/01/01 01:31:16;;;;;;;66.33;47.40;;;;;;;0.83;100.00;99900.44;6244545;23;20566;-78
2023/01/01 01:33:43;;;;;;;74.53;52.30;;;;;;;0.82;100.00;99893.50;6244346;23;20208;-78
2023/01/01 01:36:11;;;;;;;74.10;51.33;;;;;;;0.85;100.00;99891.41;6243875;23;20213;-77
2023/01/01 01:38:37;;;;;;;64.93;46.77;;;;;;;0.85;100.00;99887.91;6217914;23;20657;-79
2023/01/01 01:41:04;;;;;;;58.37;43.63;;;;;;;0.84;100.00;99902.91;6216148;23;20236;-78
2023/01/01 01:43:31;;;;;;;50.43;36.27;;;;;;;0.90;100.00;99919.97;6231879;23;20209;-78
2023/01/01 01:46:01;;;;;;;47.30;35.30;;;;;;;0.85;100.00;99917.78;6244500;23;20262;-78
2023/01/01 01:48:38;;;;;;;43.23;32.43;;;;;;;0.73;100.00;99908.44;6244417;23;20209;-78
2023/01/01 01:51:05;;;;;;;43.30;32.67;;;;;;;0.62;100.00;99913.09;6218016;23;20262;-78
2023/01/01 01:53:34;;;;;;;43.03;32.13;;;;;;;0.61;100.00;99914.06;6217850;23;20211;-78
2023/01/01 01:56:07;;;;;;;41.00;32.43;;;;;;;0.51;100.00;99906.25;6217262;23;20236;-77
2023/01/01 01:58:34;;;;;;;48.20;36.90;;;;;;;0.51;100.00;99908.03;6244443;23;20232;-79
2023/01/01 02:01:01;;;;;;;61.60;44.07;;;;;;;0.56;100.00;99905.78;6244752;23;20205;-79
2023/01/01 02:03:48;;;;;;;61.37;45.47;;;;;;;0.51;100.00;99913.31;6219911;23;20207;-78
2023/01/01 02:06:16;;;;;;;56.93;42.13;;;;;;;0.49;100.00;99917.88;6219096;23;20212;-79
2023/01/01 02:08:43;;;;;;;67.30;46.67;;;;;;;0.44;100.00;99910.44;6246341;23;20209;-79
2023/01/01 02:11:09;;;;;;;65.67;47.90;;;;;;;0.47;100.00;99911.94;6219770;23;20212;-79
2023/01/01 02:13:37;;;;;;;73.03;47.97;;;;;;;0.52;100.00;99909.66;6246046;23;20201;-78
2023/01/01 02:16:07;;;;;;;79.67;49.80;;;;;;;0.40;100.00;99903.78;6230378;23;20668;-78
2023/01/01 02:18:45;;;;;;;83.90;53.80;;;;;;;0.39;100.00;99910.88;6220808;23;20207;-79
2023/01/01 02:21:17;;;;;;;124.07;56.43;;;;;;;0.36;100.00;99911.19;6219603;23;20239;-78
2023/01/01 02:23:56;;;;;;;103.03;57.60;;;;;;;0.32;100.00;99912.44;6246025;23;20246;-79
2023/01/01 02:26:38;;;;;;;90.30;58.37;;;;;;;0.26;100.00;99901.66;6226298;23;20280;-79
2023/01/01 02:29:10;;;;;;;97.80;61.40;;;;;;;0.22;100.00;99897.66;6227784;23;20208;-78
2023/01/01 02:31:43;;;;;;;103.17;66.50;;;;;;;0.21;100.00;99902.09;6245863;23;20208;-78
2023/01/01 02:34:12;;;;;;;135.80;76.83;;;;;;;0.16;100.00;99893.81;6219197;23;20205;-78
2023/01/01 02:36:44;;;;;;;115.20;73.40;;;;;;;0.13;100.00;99891.47;6219503;23;20701;-79
2023/01/01 02:39:11;;;;;;;97.10;71.67;;;;;;;0.08;100.00;99898.97;6245687;23;20205;-78
2023/01/01 02:41:40;;;;;;;92.63;69.50;;;;;;;0.10;100.00;99886.47;6244996;23;20688;-78
2023/01/01 02:44:07;;;;;;;93.83;72.87;;;;;;;0.03;100.00;99895.13;6218256;23;20205;-79
2023/01/01 02:46:34;;;;;;;89.97;68.73;;;;;;;0.05;100.00;99898.44;6242132;23;20258;-78
2023/01/01 02:49:01;;;;;;;88.93;67.87;;;;;;;-0.04;100.00;99902.75;6216914;23;20287;-79
2023/01/01 02:51:42;;;;;;;87.63;67.13;;;;;;;-0.03;100.00;99907.06;6243916;23;20204;-78
2023/01/01 02:54:18;;;;;;;83.93;63.70;;;;;;;0.05;100.00;99909.78;6244817;23;20208;-78
2023/01/01 02:56:49;;;;;;;79.83;61.53;;;;;;;0.01;100.00;99916.34;6245384;23;20213;-79
2023/01/01 03:02:39;;;;;;;109.47;62.20;;;;;;;-0.03;100.00;99922.88;6244914;23;20269;-78
2023/01/01 03:05:27;;;;;;;139.33;63.77;;;;;;;-0.11;100.00;99922.78;6245389;23;20657;-79
2023/01/01 03:08:14;;;;;;;123.50;65.87;;;;;;;-0.16;100.00;99932.91;6245494;23;20262;-79
2023/01/01 03:11:06;;;;;;;106.50;69.47;;;;;;;-0.21;100.00;99943.03;6217590;23;20586;-78
2023/01/01 03:13:45;;;;;;;101.67;66.80;;;;;;;-0.27;100.00;99944.44;6218859;23;20215;-79
2023/01/01 03:16:35;;;;;;;95.03;67.73;;;;;;;-0.21;100.00;99948.31;6245076;23;20603;-78
2023/01/01 03:19:23;;;;;;;109.97;69.90;;;;;;;-0.27;100.00;99947.06;6245572;23;20211;-79
2023/01/01 03:22:11;;;;;;;102.30;70.57;;;;;;;-0.22;100.00;99949.28;6245517;23;20217;-79
2023/01/01 03:25:02;;;;;;;125.80;73.43;;;;;;;-0.28;100.00;99945.41;6218665;23;20217;-78
2023/01/01 03:27:49;;;;;;;123.87;72.77;;;;;;;-0.30;100.00;99944.72;6245407;23;20212;-78
2023/01/01 03:30:18;;;;;;;108.07;71.23;;;;;;;-0.22;100.00;99957.16;6243029;23;20204;-77
2023/01/01 03:33:02;;;;;;;226.07;74.80;;;;;;;-0.20;100.00;99971.88;6193902;23;20287;-79
2023/01/01 03:35:39;;;;;;;181.40;75.40;;;;;;;-0.14;100.00;99981.81;6245535;23;20307;-79
2023/01/01 03:38:12;;;;;;;179.80;75.40;;;;;;;-0.04;100.00;99984.41;6218107;23;20589;-78
2023/01/01 03:40:39;;;;;;;190.03;76.60;;;;;;;-0.04;100.00;99985.25;6218776;23;20612;-76
2023/01/01 03:43:12;;;;;;;131.73;74.60;;;;;;;-0.08;100.00;99975.97;6218851;23;20215;-76
2023/01/01 03:45:41;;;;;;;220.07;83.10;;;;;;;-0.12;100.00;99968.50;6244057;23;20247;-78
2023/01/01 03:48:09;;;;;;;114.80;76.90;;;;;;;-0.11;100.00;99984.19;6178011;23;20209;-78
2023/01/01 03:50:43;;;;;;;116.53;78.00;;;;;;;-0.06;100.00;99983.75;6195787;23;20208;-79
2023/01/01 03:53:30;;;;;;;167.53;78.07;;;;;;;0.05;100.00;99980.13;6218759;23;20239;-79
2023/01/01 03:56:06;;;;;;;325.50;87.97;;;;;;;0.04;100.00;99981.09;6244983;23;20216;-78
2023/01/01 03:58:38;;;;;;;225.07;80.40;;;;;;;0.13;100.00;99981.06;6244999;23;20603;-78
2023/01/01 04:01:13;;;;;;;295.03;82.77;;;;;;;0.13;100.00;99981.06;6245215;23;20215;-79
2023/01/01 04:03:41;;;;;;;364.27;86.67;;;;;;;0.23;100.00;99997.66;6218626;23;20697;-79
2023/01/01 04:06:09;;;;;;;371.13;89.03;;;;;;;0.28;100.00;99991.97;6218305;23;20201;-79
2023/01/01 04:08:36;;;;;;;382.30;88.30;;;;;;;0.31;100.00;99999.56;6245836;23;20214;-79
2023/01/01 04:12:00;;;;;;;304.30;84.57;;;;;;;0.33;100.00;99995.78;6244972;23;20204;-78
2023/01/01 04:13:54;;;;;;;151.70;81.70;;;;;;;0.28;100.00;100002.50;6223111;23;20204;-79
2023/01/01 04:16:21;;;;;;;121.97;81.87;;;;;;;0.28;100.00;100003.31;6217604;23;20212;-79
2023/01/01 04:18:47;;;;;;;185.67;82.43;;;;;;;0.30;100.00;99987.34;6244731;23;20201;-78
2023/01/01 04:21:14;;;;;;;111.17;79.37;;;;;;;0.26;100.00;99978.09;6244990;23;20232;-78
2023/01/01 04:23:40;;;;;;;193.90;92.60;;;;;;;0.37;100.00;99983.19;6244568;23;20255;-78
2023/01/01 04:26:12;;;;;;;138.87;92.93;;;;;;;0.32;100.00;99983.63;6244230;23;20204;-78
2023/01/01 04:28:40;;;;;;;126.43;88.47;;;;;;;0.33;100.00;99990.53;6245354;23;20200;-78
2023/01/01 04:31:07;;;;;;;121.33;88.77;;;;;;;0.32;100.00;99988.88;6244795;23;20209;-79
2023/01/01 04:33:34;;;;;;;123.17;85.93;;;;;;;0.35;100.00;99983.31;6244725;23;20259;-79
2023/01/01 04:36:08;;;;;;;117.47;80.27;;;;;;;0.42;100.00;99989.66;6243896;23;20211;-78
2023/01/01 04:38:36;;;;;;;116.03;79.37;;;;;;;0.42;100.00;100016.00;6245154;23;20212;-78
2023/01/01 04:41:03;;;;;;;155.30;82.47;;;;;;;0.38;100.00;100012.00;6244706;23;20196;-79
2023/01/01 04:43:30;;;;;;;135.20;84.40;;;;;;;0.44;100.00;100026.41;6245471;23;20239;-79
2023/01/01 04:46:01;;;;;;;125.13;83.80;;;;;;;0.43;100.00;100028.22;6232241;23;20235;-78
2023/01/01 04:48:29;;;;;;;137.60;78.67;;;;;;;0.48;100.00;100033.06;6217805;23;20205;-79
2023/01/01 04:51:03;;;;;;;121.10;81.23;;;;;;;0.52;100.00;100037.06;6244663;23;20220;-78
2023/01/01 04:53:31;;;;;;;102.93;76.20;;;;;;;0.51;100.00;100029.31;6218501;23;20213;-78
2023/01/01 04:56:06;;;;;;;117.87;78.13;;;;;;;0.49;100.00;100029.44;6244266;23;20518;-78
2023/01/01 04:58:33;;;;;;;137.90;77.17;;;;;;;0.53;100.00;100041.38;6181057;23;20260;-78
2023/01/01 05:01:00;;;;;;;106.93;76.00;;;;;;;0.57;100.00;100041.91;6218037;23;20268;-79
2023/01/01 05:03:27;;;;;;;125.47;77.17;;;;;;;0.60;100.00;100045.09;6244773;23;20279;-77
2023/01/01 05:06:08;;;;;;;125.93;75.00;;;;;;;0.62;100.00;100034.38;6244140;23;20271;-79
2023/01/01 05:08:36;;;;;;;134.37;72.47;;;;;;;0.65;100.00;100037.56;6217680;23;20207;-78
2023/01/01 05:11:15;;;;;;;100.70;69.73;;;;;;;0.65;100.00;100034.09;6218361;23;20255;-79
2023/01/01 05:13:43;;;;;;;97.07;68.23;;;;;;;0.62;100.00;100053.66;6244937;23;20213;-79
2023/01/01 05:16:12;;;;;;;106.73;70.13;;;;;;;0.61;100.00;100051.16;6227505;23;20204;-78
2023/01/01 05:18:39;;;;;;;100.60;67.70;;;;;;;0.62;100.00;100037.84;6219328;23;20232;-79
2023/01/01 05:21:17;;;;;;;83.63;66.43;;;;;;;0.70;100.00;100047.69;6244482;23;20677;-79
2023/01/01 05:23:44;;;;;;;105.47;67.83;;;;;;;0.73;100.00;100050.84;6216438;23;20239;-78
2023/01/01 05:26:13;;;;;;;112.27;68.57;;;;;;;0.73;100.00;100037.66;6243946;23;20215;-78
2023/01/01 05:28:40;;;;;;;97.07;67.00;;;;;;;0.71;100.00;100036.13;6244462;23;20204;-78
2023/01/01 05:31:18;;;;;;;116.17;64.50;;;;;;;0.76;100.00;100049.72;6244560;23;20204;-78
2023/01/01 05:33:45;;;;;;;121.07;65.20;;;;;;;0.73;100.00;100050.03;6218451;23;20682;-78
2023/01/01 05:36:17;;;;;;;102.73;65.43;;;;;;;0.70;100.00;100047.69;6244847;23;20201;-78
2023/01/01 05:38:45;;;;;;;147.37;65.50;;;;;;;0.77;100.00;100075.94;6246694;23;20236;-79
2023/01/01 05:41:13;;;;;;;159.37;64.93;;;;;;;0.75;100.00;100056.78;6219512;23;20280;-79
2023/01/01 05:43:40;;;;;;;149.33;61.77;;;;;;;0.71;100.00;100058.06;6219836;23;20208;-79
2023/01/01 05:46:11;;;;;;;106.80;61.33;;;;;;;0.70;100.00;100064.31;6219154;23;20212;-78
2023/01/01 05:48:38;;;;;;;88.40;60.50;;;;;;;0.68;100.00;100070.72;6218210;23;20650;-79
2023/01/01 05:51:13;;;;;;;83.57;59.17;;;;;;;0.65;100.00;100071.03;6220062;23;20207;-79
2023/01/01 05:53:40;;;;;;;93.87;63.70;;;;;;;0.62;100.00;100068.66;6219981;23;20549;-79
2023/01/01 05:56:07;;;;;;;96.37;61.80;;;;;;;0.58;100.00;100073.41;6219726;23;20287;-79
2023/01/01 05:58:34;;;;;;;94.50;63.10;;;;;;;0.58;100.00;100078.66;6246175;23;20224;-79
2023/01/01 06:01:12;;;;;;;94.00;65.90;;;;;;;0.64;100.00;100087.81;6219770;23;20275;-78
2023/01/01 06:03:39;;;;;;;87.93;64.73;;;;;;;0.62;100.00;100089.75;6246332;23;20262;-79
2023/01/01 06:06:08;;;;;;;84.73;62.50;;;;;;;0.57;100.00;100086.72;6204424;23;20209;-78
2023/01/01 06:08:35;;;;;;;77.93;59.63;;;;;;;0.60;100.00;100078.53;6219582;23;20212;-80
2023/01/01 06:11:04;;;;;;;81.43;59.23;;;;;;;0.61;100.00;100075.72;6219617;23;20205;-79
2023/01/01 06:13:31;;;;;;;77.00;58.43;;;;;;;0.59;100.00;100079.50;6245755;23;20208;-78
2023/01/01 06:15:58;;;;;;;75.57;56.50;;;;;;;0.61;100.00;100096.00;6246059;23;20200;-79
2023/01/01 06:18:27;;;;;;;72.73;55.40;;;;;;;0.54;100.00;100105.47;6219016;23;20205;-79
2023/01/01 06:20:55;;;;;;;67.27;52.23;;;;;;;0.54;100.00;100101.03;6244967;23;20209;-78
2023/01/01 06:23:21;;;;;;;70.40;53.07;;;;;;;0.59;100.00;100098.81;6246046;23;20573;-78
2023/01/01 06:25:48;;;;;;;68.87;54.77;;;;;;;0.55;100.00;100092.16;6245969;23;20669;-79
2023/01/01 06:28:14;;;;;;;71.23;54.37;;;;;;;0.54;100.00;100095.75;6204671;23;20262;-78
2023/01/01 06:30:43;;;;;;;66.47;52.50;;;;;;;0.54;100.00;100097.56;6246170;23;20665;-79
2023/01/01 06:33:09;;;;;;;70.53;53.37;;;;;;;0.53;100.00;100101.16;6245874;23;20200;-79
2023/01/01 06:35:36;;;;;;;67.20;53.43;;;;;;;0.46;100.00;100100.94;6246038;23;20285;-78
2023/01/01 06:38:03;;;;;;;68.00;51.80;;;;;;;0.44;100.00;100093.16;6245310;23;20205;-78
2023/01/01 06:40:29;;;;;;;71.93;53.57;;;;;;;0.51;100.00;100105.78;6245844;23;20205;-79
2023/01/01 06:42:56;;;;;;;66.97;51.77;;;;;;;0.46;100.00;100113.28;6245781;23;20283;-79
2023/01/01 06:45:22;;;;;;;65.70;52.97;;;;;;;0.40;100.00;100118.16;6245734;23;20201;-79
2023/01/01 06:47:49;;;;;;;66.73;51.13;;;;;;;0.42;100.00;100110.09;6245143;23;20679;-79
2023/01/01 06:50:15;;;;;;;64.37;51.23;;;;;;;0.48;100.00;100104.25;6218246;23;20557;-78
2023/01/01 06:52:42;;;;;;;81.37;50.80;;;;;;;0.47;100.00;100113.13;6245871;23;20211;-78
2023/01/01 06:55:09;;;;;;;63.60;50.77;;;;;;;0.46;100.00;100114.13;6245711;23;20205;-79
2023/01/01 06:57:35;;;;;;;62.10;49.07;;;;;;;0.40;100.00;100120.78;6245780;23;20209;-80
2023/01/01 07:00:02;;;;;;;61.67;49.70;;;;;;;0.39;100.00;100126.19;6245114;23;20201;-77
2023/01/01 07:02:29;;;;;;;62.10;49.20;;;;;;;0.41;100.00;100129.53;6245821;23;20208;-79
2023/01/01 07:04:55;;;;;;;62.33;49.63;;;;;;;0.40;100.00;100122.59;6245285;23;20211;-79
2023/01/01 07:07:22;;;;;;;64.53;51.47;;;;;;;0.47;100.00;100125.50;6218379;23;20673;-79
2023/01/01 07:09:49;;;;;;;63.90;50.23;;;;;;;0.46;100.00;100123.81;6245593;23;20585;-79
2023/01/01 07:12:15;;;;;;;59.63;49.23;;;;;;;0.42;100.00;100126.72;6244755;23;20215;-79
2023/01/01 07:14:42;;;;;;;60.43;49.03;;;;;;;0.46;100.00;100139.63;6245599;23;20211;-78
2023/01/01 07:17:08;;;;;;;61.63;48.30;;;;;;;0.48;100.00;100138.50;6246101;23;20704;-79
2023/01/01 07:19:35;;;;;;;62.57;49.83;;;;;;;0.48;100.00;100150.84;6245408;23;20549;-79
2023/01/01 07:22:01;;;;;;;60.80;49.07;;;;;;;0.46;100.00;100151.03;6244712;23;20231;-78
2023/01/01 07:24:29;;;;;;;58.10;48.43;;;;;;;0.52;100.00;100152.22;6245712;23;20212;-79
2023/01/01 07:26:56;;;;;;;60.53;49.30;;;;;;;0.53;100.00;100157.38;6243750;23;20665;-79
2023/01/01 07:29:22;;;;;;;62.37;48.90;;;;;;;0.59;100.00;100175.28;6245073;23;20553;-79
2023/01/01 07:31:49;;;;;;;59.27;48.13;;;;;;;0.63;100.00;100192.47;6245514;23;20209;-79
2023/01/01 07:34:18;;;;;;;57.87;47.60;;;;;;;0.66;100.00;100173.72;6244702;23;20737;-79
2023/01/01 07:36:45;;;;;;;56.03;45.73;;;;;;;0.76;100.00;100174.50;6245704;23;20653;-79
2023/01/01 07:39:11;;;;;;;55.97;46.07;;;;;;;0.79;100.00;100170.78;6245037;23;20205;-78
2023/01/01 07:41:38;;;;;;;53.33;44.57;;;;;;;0.85;100.00;100191.28;6218851;23;20546;-79
2023/01/01 07:44:05;;;;;;;54.20;43.97;;;;;;;0.84;100.00;100198.34;6244742;23;20205;-78
2023/01/01 07:46:34;;;;;;;59.17;46.13;;;;;;;0.85;100.00;100201.84;6245360;23;20705;-78
2023/01/01 07:49:01;;;;;;;59.57;43.37;;;;;;;1.04;100.00;100193.03;6218653;23;20208;-79
2023/01/01 07:51:27;;;;;;;55.87;41.37;;;;;;;1.14;100.00;100199.94;6218859;23;20720;-79
2023/01/01 07:53:54;;;;;;;57.27;44.70;;;;;;;1.22;100.00;100213.22;6245647;23;20650;-79
2023/01/01 07:56:27;;;;;;;53.70;43.73;;;;;;;1.33;100.00;100217.50;6244680;23;20274;-78
2023/01/01 07:58:54;;;;;;;54.30;43.37;;;;;;;1.51;100.00;100204.31;6245000;23;20209;-79
2023/01/01 08:01:21;;;;;;;56.23;43.87;;;;;;;1.58;100.00;100210.69;6244982;23;20200;-79
2023/01/01 08:03:51;;;;;;;52.20;41.83;;;;;;;1.71;100.00;100222.56;6245259;23;20236;-79
2023/01/01 08:06:18;;;;;;;49.47;39.70;;;;;;;1.74;100.00;100213.50;6217906;23;20663;-78
2023/01/01 08:08:45;;;;;;;52.13;40.03;;;;;;;1.80;100.00;100210.28;6244818;23;20657;-79
2023/01/01 08:11:11;;;;;;;47.37;37.63;;;;;;;1.80;100.00;100207.63;6245041;23;20209;-79
2023/01/01 08:13:38;;;;;;;45.27;36.63;;;;;;;1.80;100.00;100217.38;6244835;23;20220;-79
2023/01/01 08:16:05;;;;;;;42.77;35.30;;;;;;;1.77;100.00;100216.66;6244553;23;20251;-79
2023/01/01 08:18:32;;;;;;;40.30;34.53;;;;;;;1.81;100.00;100214.59;6244982;23;20284;-78
2023/01/01 08:20:58;;;;;;;45.67;38.80;;;;;;;1.83;100.00;100217.06;6218171;23;20224;-78
2023/01/01 08:23:25;;;;;;;45.20;37.93;;;;;;;1.88;100.00;100215.63;6231131;23;20723;-81
2023/01/01 08:25:51;;;;;;;50.43;44.17;;;;;;;1.98;100.00;100218.22;6244843;23;20279;-79
2023/01/01 08:28:18;;;;;;;44.90;37.70;;;;;;;2.07;100.00;100219.94;6244396;23;20208;-78
2023/01/01 08:30:45;;;;;;;42.63;35.50;;;;;;;2.04;100.00;100213.16;6218470;23;20284;-79
2023/01/01 08:33:11;;;;;;;40.90;34.43;;;;;;;2.12;100.00;100218.50;6244952;23;20200;-79
2023/01/01 08:35:40;;;;;;;38.97;33.73;;;;;;;2.20;100.00;100223.03;6244550;23;20209;-79
2023/01/01 08:38:10;;;;;;;38.70;32.87;;;;;;;2.22;100.00;100229.03;6217607;23;20208;-79
2023/01/01 08:40:36;;;;;;;40.83;33.77;;;;;;;2.18;100.00;100225.84;6244787;23;20207;-79
2023/01/01 08:43:03;;;;;;;39.03;33.90;;;;;;;2.23;100.00;100235.97;6217609;23;20538;-80
2023/01/01 08:45:29;;;;;;;38.70;33.43;;;;;;;2.30;100.00;100237.00;6245401;23;20185;-79
2023/01/01 08:47:56;;;;;;;40.20;34.50;;;;;;;2.29;100.00;100232.69;6218021;23;20669;-78
2023/01/01 08:50:23;;;;;;;40.20;34.00;;;;;;;2.31;100.00;100238.69;6245177;23;20200;-79
2023/01/01 08:52:49;;;;;;;39.23;32.97;;;;;;;2.40;100.00;100237.78;6245018;23;20315;-78
2023/01/01 08:55:16;;;;;;;38.13;33.00;;;;;;;2.54;100.00;100231.09;6244974;23;20201;-79
2023/01/01 08:57:42;;;;;;;38.07;32.17;;;;;;;2.64;100.00;100215.97;6244861;23;20713;-78
2023/01/01 09:00:09;;;;;;;39.60;34.03;;;;;;;2.81;100.00;100222.19;6242270;23;20211;-78
2023/01/01 09:02:36;;;;;;;39.67;34.27;;;;;;;2.95;100.00;100216.31;6244941;23;20215;-78
2023/01/01 09:05:03;;;;;;;39.20;34.23;;;;;;;3.10;100.00;100233.28;6244293;23;20204;-79
2023/01/01 09:07:30;;;;;;;38.87;33.40;;;;;;;3.38;100.00;100231.28;6244853;23;20211;-79
2023/01/01 09:09:57;;;;;;;40.77;33.93;;;;;;;3.60;100.00;100236.00;6205067;23;20215;-79
2023/01/01 09:12:23;;;;;;;40.17;32.43;;;;;;;3.81;100.00;100225.00;6245497;23;20203;-79
2023/01/01 09:14:50;;;;;;;38.27;32.10;;;;;;;3.99;100.00;100223.03;6247049;23;20208;-79
2023/01/01 09:17:16;;;;;;;41.47;33.47;;;;;;;4.16;100.00;100226.53;6246838;23;20208;-79
2023/01/01 09:19:43;;;;;;;40.37;33.27;;;;;;;4.27;100.00;100236.84;6246798;23;20204;-80
2023/01/01 09:22:10;;;;;;;39.33;32.73;;;;;;;4.32;100.00;100248.63;6246253;23;20204;-78
2023/01/01 09:24:37;;;;;;;38.93;32.00;;;;;;;4.46;100.00;100256.91;6220519;23;20230;-79
2023/01/01 09:27:04;;;;;;;37.37;32.30;;;;;;;4.61;100.00;100247.31;6246866;23;20282;-78
2023/01/01 09:29:31;;;;;;;38.10;31.87;;;;;;;4.75;100.00;100257.25;6246571;23;20677;-78
2023/01/01 09:31:58;;;;;;;36.60;31.57;;;;;;;4.84;100.00;100259.75;6220950;23;20708;-79
2023/01/01 09:34:24;;;;;;;38.33;31.80;;;;;;;4.95;100.00;100252.41;6247236;23;20275;-78
2023/01/01 09:36:51;;;;;;;37.00;30.77;;;;;;;5.04;100.00;100246.09;6246553;23;20224;-79
2023/01/01 09:39:17;;;;;;;37.97;31.37;;;;;;;5.12;100.00;100240.78;6247696;23;20205;-79
2023/01/01 09:42:09;;;;;;;39.17;32.77;;;;;;;5.20;100.00;100238.91;6195836;23;20205;-79
2023/01/01 09:44:58;;;;;;;61.00;46.10;;;;;;;5.35;100.00;100248.84;6247652;23;20281;-80
2023/01/01 09:47:31;;;;;;;46.17;36.03;;;;;;;5.40;100.00;100244.69;6248007;23;20235;-79
2023/01/01 09:50:03;;;;;;;55.13;41.00;;;;;;;5.53;100.00;100258.25;6182953;23;20209;-80
2023/01/01 09:52:39;;;;;;;41.33;33.97;;;;;;;5.60;100.00;100253.88;6195878;23;20225;-79
2023/01/01 09:55:49;;;;;;;40.60;32.00;;;;;;;5.78;100.00;100254.47;6221915;23;20204;-79
2023/01/01 09:58:20;;;;;;;40.43;31.73;;;;;;;5.75;100.00;100257.47;6207492;23;20255;-79
2023/01/01 10:00:50;;;;;;;40.77;32.60;;;;;;;5.55;100.00;100250.09;6221566;23;20211;-79
2023/01/01 10:03:21;;;;;;;43.77;33.93;;;;;;;5.68;100.00;100245.06;6221399;23;20211;-79
2023/01/01 10:06:06;;;;;;;41.60;34.37;;;;;;;5.81;100.00;100255.13;6248397;23;20234;-79
2023/01/01 10:08:41;;;;;;;44.73;34.20;;;;;;;5.78;100.00;100257.13;6221198;23;20573;-79
2023/01/01 10:11:15;;;;;;;41.73;33.90;;;;;;;5.77;100.00;100249.34;6221261;23;20208;-79
2023/01/01 10:13:44;;;;;;;42.37;34.33;;;;;;;5.81;100.00;100247.97;6247862;23;20280;-79
2023/01/01 10:16:12;;;;;;;39.07;32.83;;;;;;;5.81;100.00;100234.69;6221413;23;20212;-79
2023/01/01 10:18:45;;;;;;;42.33;33.93;;;;;;;5.99;100.00;100226.47;6222904;23;20216;-80
2023/01/01 10:21:19;;;;;;;44.13;34.47;;;;;;;5.97;100.00;100234.63;6221308;23;20205;-79
2023/01/01 10:23:54;;;;;;;41.13;33.27;;;;;;;6.06;100.00;100230.09;6221002;23;20642;-79
2023/01/01 10:26:25;;;;;;;39.33;33.57;;;;;;;6.17;100.00;100230.50;6247981;23;20296;-80
2023/01/01 10:29:00;;;;;;;41.03;33.23;;;;;;;6.42;100.00;100230.34;6221703;23;20201;-79
2023/01/01 10:31:32;;;;;;;39.63;33.07;;;;;;;6.54;100.00;100229.72;6247850;23;20208;-79
2023/01/01 10:34:19;;;;;;;40.03;33.37;;;;;;;6.73;100.00;100233.72;6226712;23;20272;-80
2023/01/01 10:36:52;;;;;;;41.47;32.17;;;;;;;6.84;100.00;100225.31;6226151;23;20284;-80
2023/01/01 10:39:19;;;;;;;42.23;35.27;;;;;;;7.00;100.00;100217.16;6253436;23;20291;-80
2023/01/01 10:41:46;;;;;;;40.00;31.57;;;;;;;6.89;100.00;100214.94;6225779;23;20205;-80
2023/01/01 10:44:15;;;;;;;36.30;30.27;;;;;;;7.18;100.00;100223.97;6226202;23;20209;-80
2023/01/01 10:46:48;;;;;;;35.00;30.20;;;;;;;7.25;100.00;100214.22;6254030;23;20232;-80
2023/01/01 10:49:15;;;;;;;34.37;29.20;;;;;;;7.21;100.00;100218.28;6227381;23;20220;-80
2023/01/01 10:51:47;;;;;;;34.27;29.27;;;;;;;7.20;100.00;100217.44;6202787;23;20234;-80
2023/01/01 10:54:38;;;;;;;36.27;31.20;;;;;;;7.46;100.00;100217.00;6227257;23;20552;-80
2023/01/01 10:57:26;;;;;;;38.47;30.33;;;;;;;7.56;100.00;100217.50;6207679;23;20209;-80
2023/01/01 10:59:53;;;;;;;34.30;29.17;;;;;;;7.64;100.00;100220.09;6251689;23;20650;-81
2023/01/01 11:02:25;;;;;;;32.83;28.70;;;;;;;7.76;100.00;100228.44;6225965;23;20216;-81
2023/01/01 11:05:18;;;;;;;33.00;29.33;;;;;;;7.76;100.00;100221.25;6253185;23;20251;-81
2023/01/01 11:07:48;;;;;;;30.73;27.27;;;;;;;7.79;100.00;100220.06;6189454;23;20217;-80
2023/01/01 11:10:33;;;;;;;32.27;27.43;;;;;;;7.74;100.00;100214.47;6248382;23;20211;-81
2023/01/01 11:13:00;;;;;;;30.30;24.93;;;;;;;7.85;100.00;100217.47;6227948;23;20220;-81
2023/01/01 11:15:35;;;;;;;29.10;25.13;;;;;;;7.86;100.00;100224.47;6229622;23;20257;-80
2023/01/01 11:18:10;;;;;;;31.93;26.50;;;;;;;7.87;100.00;100222.63;6201807;23;20209;-80
2023/01/01 11:20:37;;;;;;;29.47;25.27;;;;;;;7.77;100.00;100209.56;6253713;23;20209;-80
2023/01/01 11:23:18;;;;;;;31.03;26.30;;;;;;;7.51;100.00;100194.06;6252468;23;20216;-81
2023/01/01 11:26:11;;;;;;;30.97;27.23;;;;;;;7.80;100.00;100198.53;6202317;23;20665;-81
2023/01/01 11:28:38;;;;;;;30.50;26.20;;;;;;;7.91;100.00;100195.38;6236317;23;20208;-81
2023/01/01 11:31:16;;;;;;;31.07;26.33;;;;;;;7.88;100.00;100202.94;6203697;23;20220;-80